ADDS METAR Data INFO
IDs: Format: Raw Decoded Include TAF

Data at: 0752 UTC 17 Oct 2017

KPBG 170653Z AUTO 00000KT 10SM CLR 01/M02 A3023 RMK AO2 SLP239 T00061017
KPBG 170553Z AUTO 26004KT 10SM CLR 03/M02 A3022 RMK AO2 SLP237 T00281022 10067 20022 50006
KPBG 170453Z AUTO 28005KT 10SM CLR 03/M02 A3023 RMK AO2 SLP238 T00281017 401330028
KPBG 170353Z AUTO 27003KT 10SM CLR 03/M01 A3022 RMK AO2 SLP234 T00281011
KPBG 170253Z AUTO 27003KT 10SM CLR 03/M01 A3021 RMK AO2 SLP230 T00331006 51013
KPBG 170153Z AUTO 29004KT 10SM FEW065 05/M01 A3020 RMK AO2 SLP230 T00501006
KPBG 170053Z AUTO 29004KT 10SM OVC065 06/00 A3018 RMK AO2 SLP223 T00610000
KPBG 162353Z AUTO 29006KT 10SM OVC065 07/M01 A3017 RMK AO2 SLP218 T00671006 10083 20061 51018
KPBG 162253Z AUTO 29005KT 10SM OVC060 07/01 A3015 RMK AO2 SLP212 T00670011
KPBG 162153Z AUTO 32009KT 10SM FEW043 OVC065 07/01 A3014 RMK AO2 SLP208 T00670006
KPBG 162053Z AUTO 32009KT 10SM FEW047 OVC060 08/M01 A3012 RMK AO2 SLP200 T00781006 53008
KPBG 161953Z AUTO 30007KT 10SM OVC045 08/M01 A3010 RMK AO2 SLP196 T00831011
KPBG 161853Z AUTO 30005KT 10SM OVC039 08/M01 A3010 RMK AO2 SLP193 T00831006
KPBG 161753Z AUTO 33012G17KT 10SM OVC035 07/M01 A3009 RMK AO2 SLP192 60000 T00721006 10089 20067 51004
KPBG 161653Z AUTO 32011G15KT 10SM BKN034 OVC040 08/01 A3009 RMK AO2 SLP191 T00780006
KPBG 161553Z AUTO 33011KT 10SM BKN034 OVC043 08/01 A3009 RMK AO2 RAE1454 SLP191 P0000 T00780006
KPBG 161534Z AUTO 32012G17KT 10SM BKN030 OVC038 07/01 A3009 RMK AO2 RAE1454 P0000 T00720006
KPBG 161515Z AUTO 35011KT 10SM BKN029 OVC039 07/01 A3009 RMK AO2 RAE1454 P0000 T00670011
KPBG 161453Z AUTO 33011G18KT 10SM -RA FEW029 OVC041 08/01 A3008 RMK AO2 RAB44 SLP187 P0000 60000 T00830011 51019
KPBG 161353Z AUTO 33011KT 10SM OVC031 07/01 A3007 RMK AO2 SLP182 T00720006
KPBG 161346Z AUTO 33013G18KT 10SM OVC031 07/01 A3007 RMK AO2 T00720006
KPBG 161304Z AUTO 33009KT 10SM OVC029 07/02 A3005 RMK AO2 T00720017
KPBG 161253Z AUTO 33005KT 10SM OVC030 07/01 A3005 RMK AO2 SLP176 T00720011
KPBG 161153Z AUTO 33007KT 10SM BKN035 OVC041 07/01 A3002 RMK AO2 SLP168 70007 T00720006 10111 20067 53036
KPBG 161053Z AUTO 33010KT 10SM OVC032 07/02 A2998 RMK AO2 SLP151 T00720017
KPBG 161041Z AUTO 33010KT 10SM BKN030 OVC035 07/02 A2997 RMK AO2 T00720017
KPBG 160953Z AUTO 32003KT 10SM OVC029 07/03 A2994 RMK AO2 SLP139 T00720028
KPBG 160853Z AUTO 30007G18KT 10SM BKN026 BKN032 08/03 A2992 RMK AO2 SLP131 T00780028 51040
KPBG 160803Z AUTO 32014G18KT 10SM OVC028 08/04 A2990 RMK AO2 T00830039
KPBG 160753Z AUTO 32006G17KT 10SM OVC030 09/03 A2990 RMK AO2 SLP125 T00890033
KPBG 160653Z AUTO 30007G16KT 10SM BKN032 OVC041 10/04 A2986 RMK AO2 SLP113 T01000039
KPBG 160553Z AUTO 32012G18KT 10SM OVC031 11/06 A2980 RMK AO2 SLP091 60005 T01110056 10211 20111 53071
KPBG 160453Z AUTO 32013G20KT 10SM OVC032 14/07 A2973 RMK AO2 SLP068 T01390072 402280133
KPBG 160353Z AUTO 30007KT 10SM BKN047 OVC075 19/11 A2965 RMK AO2 PRESRR SLP039 T01940106
KPBG 160253Z AUTO 10SM FEW042 SCT050 BKN070 19/13 A2959 RMK AO2 SLP019 60005 T01940133 53026
KPBG 160153Z AUTO 21007KT 160V260 10SM FEW049 FEW120 20/13 A2954 RMK AO2 SLP004 T02000133
KPBG 160053Z AUTO VRB06KT 10SM FEW070 SCT090 BKN110 21/16 A2952 RMK AO2 RAE28 SLP995 P0005 T02060161
KPBG 152353Z AUTO 18006KT 8SM -RA SCT048 OVC060 21/17 A2951 RMK AO2 RAB26 SLP993 P0002 60002 T02060172 10228 20200 53001
KPBG 152253Z AUTO 16016G21KT 10SM SCT065 BKN090 BKN100 23/16 A2946 RMK AO2 SLP974 T02280161
KPBG 152153Z AUTO 16011KT 10SM BKN065 22/16 A2947 RMK AO2 SLP980 T02220161
KPBG 152053Z AUTO 15015G21KT 10SM BKN060 23/16 A2951 RMK AO2 SLP992 T02280156 57040
KPBG 151953Z AUTO 15015G20KT 10SM OVC060 22/15 A2955 RMK AO2 SLP006 T02220150